Loomis, Wisconsin
Current Conditions -  °F | °C
As of 1:15 PM on Sunday 23 Nov 2014 (Local Time) from KMNM Reporting Station
Overcast Overcast  
Wind Chill: 41°   Ceiling: 500
Heat Index: 46°   Visibility: 2.5mi
Dew Point: 45°   Wind: 13mph
Humidity: 93%   Direction: 200°SSW
Pressure: 29.52"   Gusts: 20mph
Location:  45.2013°N, 87.8321°W
Report Text: KMNM 231915Z AUTO 20011G17KT 2 1/2SM OVC005 08/07 A2952 RMK AO1
Loading
Personal Weather Stations






























Interactive Weather Map New forecast layout! Learn more

10-Day Weather Forecast

Advertisements
Track Severe Weather on mobile